Time;durP1;ratioP1;P1;durP2;ratioP2;P2;SDS_P1;SDS_P2;PMS_P1;PMS_P2;Temp;Humidity;BMP_temperature;BMP_pressure;BME280_temperature;BME280_humidity;BME280_pressure;Samples;Min_cycle;Max_cycle;Signal;HPM_P1;HPM_P2
2023/03/28 00:01:20;;;;;;;;;;;1.60;99.90;;;;;;5063085;28;20501;-72
2023/03/28 00:03:46;;;;;;;;;;;1.60;99.90;;;;;;5022218;28;209277;-70
2023/03/28 00:06:15;;;;;;;;;;;1.50;99.90;;;;;;4995273;28;269232;-72
2023/03/28 00:08:41;;;;;;;;;;;1.40;99.90;;;;;;5052168;28;203408;-70
2023/03/28 00:11:17;;;;;;;;;;;1.40;99.90;;;;;;5014190;28;210050;-71
2023/03/28 00:13:45;;;;;;;;;;;1.40;99.90;;;;;;5042037;28;207961;-69
2023/03/28 00:16:11;;;;;;;;;;;1.40;99.90;;;;;;5033575;28;209821;-71
2023/03/28 00:18:38;;;;;;;;;;;1.40;99.90;;;;;;5056559;28;19921;-72
2023/03/28 00:21:06;;;;;;;;;;;1.40;99.90;;;;;;4990737;28;196159;-71
2023/03/28 00:23:34;;;;;;;;;;;1.40;99.90;;;;;;5064038;28;19928;-71
2023/03/28 00:26:03;;;;;;;;;;;1.40;99.90;;;;;;4998644;28;211493;-71
2023/03/28 00:28:29;;;;;;;;;;;1.40;99.90;;;;;;5065756;28;20157;-71
2023/03/28 00:31:01;;;;;;;;;;;1.40;99.90;;;;;;5024645;28;208756;-71
2023/03/28 00:33:27;;;;;;;;;;;1.40;99.90;;;;;;5059961;28;19931;-71
2023/03/28 00:35:55;;;;;;;;;;;1.30;99.90;;;;;;5031046;28;207585;-71
2023/03/28 00:38:20;;;;;;;;;;;1.30;99.90;;;;;;5062988;28;19956;-71
2023/03/28 00:40:47;;;;;;;;;;;1.30;99.90;;;;;;5012773;28;137901;-71
2023/03/28 00:43:13;;;;;;;;;;;1.30;99.90;;;;;;5077837;28;19933;-71
2023/03/28 00:45:40;;;;;;;;;;;1.30;99.90;;;;;;5010756;28;207414;-71
2023/03/28 00:48:10;;;;;;;;;;;1.30;99.90;;;;;;5058881;28;19924;-72
2023/03/28 00:50:38;;;;;;;;;;;1.30;99.90;;;;;;5009260;28;208721;-71
2023/03/28 00:53:09;;;;;;;;;;;1.30;99.90;;;;;;5057945;28;20400;-71
2023/03/28 00:56:10;;;;;;;;;;;1.30;99.90;;;;;;5001465;28;209942;-71
2023/03/28 00:58:40;;;;;;;;;;;1.30;99.90;;;;;;4982746;28;19926;-71
2023/03/28 01:01:07;;;;;;;;;;;1.30;99.90;;;;;;4907145;28;200158;-71
2023/03/28 01:03:33;;;;;;;;;;;1.20;99.90;;;;;;4979388;28;20422;-72
2023/03/28 01:06:01;;;;;;;;;;;1.30;99.90;;;;;;4897358;28;194491;-72
2023/03/28 01:08:28;;;;;;;;;;;1.20;99.90;;;;;;4979537;28;19964;-72
2023/03/28 01:10:55;;;;;;;;;;;1.20;99.90;;;;;;4913557;28;185378;-71
2023/03/28 01:13:27;;;;;;;;;;;1.20;99.90;;;;;;4967553;28;19930;-71
2023/03/28 01:15:52;;;;;;;;;;;1.20;99.90;;;;;;4910965;28;176630;-71
2023/03/28 01:18:21;;;;;;;;;;;1.20;99.90;;;;;;4981727;28;19930;-71
2023/03/28 01:21:02;;;;;;;;;;;1.20;99.90;;;;;;4922492;28;206253;-71
2023/03/28 01:23:46;;;;;;;;;;;1.20;99.90;;;;;;4981390;28;20046;-71
2023/03/28 01:26:28;;;;;;;;;;;1.10;99.90;;;;;;4901668;28;205973;-71
2023/03/28 01:28:55;;;;;;;;;;;1.10;99.90;;;;;;4918885;28;262805;-70
2023/03/28 01:31:27;;;;;;;;;;;1.20;99.90;;;;;;4965841;28;20314;-72
2023/03/28 01:34:11;;;;;;;;;;;1.10;99.90;;;;;;5000668;28;215801;-71
2023/03/28 01:36:37;;;;;;;;;;;1.10;99.90;;;;;;5074382;28;19998;-72
2023/03/28 01:39:17;;;;;;;;;;;1.10;99.90;;;;;;5013914;28;220613;-71
2023/03/28 01:41:49;;;;;;;;;;;1.20;99.90;;;;;;5060305;28;19940;-71
2023/03/28 01:44:37;;;;;;;;;;;1.20;99.90;;;;;;5010678;28;209507;-71
2023/03/28 01:47:06;;;;;;;;;;;1.10;99.90;;;;;;5064500;28;19990;-71
2023/03/28 01:49:48;;;;;;;;;;;1.10;99.90;;;;;;5005120;28;209698;-71
2023/03/28 01:52:23;;;;;;;;;;;1.10;99.90;;;;;;5060727;28;19940;-72
2023/03/28 01:55:04;;;;;;;;;;;1.20;99.90;;;;;;4995402;28;156284;-71
2023/03/28 01:57:48;;;;;;;;;;;1.10;99.90;;;;;;5055438;28;20401;-71
2023/03/28 02:00:18;;;;;;;;;;;1.20;99.90;;;;;;4988297;28;216234;-71
2023/03/28 02:02:51;;;;;;;;;;;1.10;99.90;;;;;;5052518;28;19920;-71
2023/03/28 02:05:20;;;;;;;;;;;1.10;99.90;;;;;;5001518;28;205850;-71
2023/03/28 02:07:48;;;;;;;;;;;1.10;99.90;;;;;;5043909;28;19925;-72
2023/03/28 02:10:14;;;;;;;;;;;1.00;99.90;;;;;;5017881;28;207596;-71
2023/03/28 02:12:47;;;;;;;;;;;1.00;99.90;;;;;;5069008;28;19931;-72
2023/03/28 02:15:15;;;;;;;;;;;1.00;99.90;;;;;;5008399;28;209967;-72
2023/03/28 02:17:44;;;;;;;;;;;0.90;99.90;;;;;;5062316;28;19936;-71
2023/03/28 02:20:13;;;;;;;;;;;0.90;99.90;;;;;;5015432;28;206288;-71
2023/03/28 02:22:44;;;;;;;;;;;0.90;99.90;;;;;;5062284;28;19924;-71
2023/03/28 02:25:10;;;;;;;;;;;0.90;99.90;;;;;;5017812;28;207324;-71
2023/03/28 02:27:38;;;;;;;;;;;0.80;99.90;;;;;;5065449;28;19988;-71
2023/03/28 02:30:06;;;;;;;;;;;0.80;99.90;;;;;;5016211;28;206085;-70
2023/03/28 02:32:32;;;;;;;;;;;0.80;99.90;;;;;;5058675;28;19928;-71
2023/03/28 02:34:59;;;;;;;;;;;0.80;99.90;;;;;;5009919;28;209596;-70
2023/03/28 02:37:37;;;;;;;;;;;0.80;99.90;;;;;;5055760;28;19928;-70
2023/03/28 02:40:15;;;;;;;;;;;0.80;99.90;;;;;;4999237;28;209265;-71
2023/03/28 02:42:41;;;;;;;;;;;0.80;99.90;;;;;;5065665;28;19939;-70
2023/03/28 02:45:33;;;;;;;;;;;0.80;99.90;;;;;;5006062;28;205971;-70
2023/03/28 02:48:08;;;;;;;;;;;0.80;99.90;;;;;;5054789;28;19924;-71
2023/03/28 02:50:52;;;;;;;;;;;0.80;99.90;;;;;;5007191;28;206766;-71
2023/03/28 02:53:26;;;;;;;;;;;0.90;99.90;;;;;;5076389;28;19924;-70
2023/03/28 02:56:03;;;;;;;;;;;0.90;99.90;;;;;;5000095;28;209111;-72
2023/03/28 02:58:38;;;;;;;;;;;0.90;99.90;;;;;;5064597;28;20068;-71
2023/03/28 03:01:05;;;;;;;;;;;0.90;99.90;;;;;;5008168;28;209269;-71
2023/03/28 03:03:32;;;;;;;;;;;0.90;99.90;;;;;;5062815;28;20328;-71
2023/03/28 03:05:59;;;;;;;;;;;0.90;99.90;;;;;;4993773;28;217080;-71
2023/03/28 03:08:26;;;;;;;;;;;0.90;99.90;;;;;;5063394;28;19924;-71
2023/03/28 03:10:52;;;;;;;;;;;0.80;99.90;;;;;;5019936;28;130206;-71
2023/03/28 03:13:18;;;;;;;;;;;0.80;99.90;;;;;;5061013;28;19935;-70
2023/03/28 03:15:45;;;;;;;;;;;0.80;99.90;;;;;;4966626;28;207892;-71
2023/03/28 03:18:11;;;;;;;;;;;0.80;99.90;;;;;;5063858;28;20304;-71
2023/03/28 03:20:39;;;;;;;;;;;0.80;99.90;;;;;;4997496;28;208976;-71
2023/03/28 03:23:06;;;;;;;;;;;0.80;99.90;;;;;;5062543;28;19932;-71
2023/03/28 03:25:32;;;;;;;;;;;0.80;99.90;;;;;;5022448;28;206881;-71
2023/03/28 03:27:58;;;;;;;;;;;0.80;99.90;;;;;;5061949;28;19928;-71
2023/03/28 03:30:24;;;;;;;;;;;0.70;99.90;;;;;;4992661;28;204742;-71
2023/03/28 03:32:51;;;;;;;;;;;0.70;99.90;;;;;;5061278;28;19931;-70
2023/03/28 03:35:18;;;;;;;;;;;0.70;99.90;;;;;;5010840;28;215949;-70
2023/03/28 03:37:45;;;;;;;;;;;0.70;99.90;;;;;;5049831;28;20568;-70
2023/03/28 03:40:11;;;;;;;;;;;0.70;99.90;;;;;;5008969;28;211311;-70
2023/03/28 03:42:37;;;;;;;;;;;0.70;99.90;;;;;;5064059;28;19982;-70
2023/03/28 03:45:03;;;;;;;;;;;0.70;99.90;;;;;;5009415;28;208419;-70
2023/03/28 03:47:31;;;;;;;;;;;0.60;99.90;;;;;;5059287;28;21540;-70
2023/03/28 03:49:58;;;;;;;;;;;0.60;99.90;;;;;;5009626;28;206571;-71
2023/03/28 03:52:23;;;;;;;;;;;0.60;99.90;;;;;;5052917;28;19927;-70
2023/03/28 03:54:49;;;;;;;;;;;0.50;99.90;;;;;;5015235;28;209764;-71
2023/03/28 03:57:16;;;;;;;;;;;0.50;99.90;;;;;;5073189;28;20381;-71
2023/03/28 03:59:42;;;;;;;;;;;0.40;99.90;;;;;;5005268;28;209073;-70
2023/03/28 04:02:08;;;;;;;;;;;0.40;99.90;;;;;;5048442;28;19921;-70
2023/03/28 04:04:35;;;;;;;;;;;0.40;99.90;;;;;;4993479;28;207747;-70
2023/03/28 04:07:01;;;;;;;;;;;0.40;99.90;;;;;;5056246;28;19931;-70
2023/03/28 04:09:27;;;;;;;;;;;0.40;99.90;;;;;;5003816;28;206556;-70
2023/03/28 04:11:53;;;;;;;;;;;0.40;99.90;;;;;;5058651;28;20460;-70
2023/03/28 04:14:20;;;;;;;;;;;0.40;99.90;;;;;;4993406;28;210725;-70
2023/03/28 04:16:50;;;;;;;;;;;0.40;99.90;;;;;;5041184;28;19932;-71
2023/03/28 04:19:17;;;;;;;;;;;0.30;99.90;;;;;;5011799;28;207318;-70
2023/03/28 04:21:46;;;;;;;;;;;0.30;99.90;;;;;;5038822;28;19931;-71
2023/03/28 04:24:14;;;;;;;;;;;0.30;99.90;;;;;;5009241;28;208100;-71
2023/03/28 04:26:40;;;;;;;;;;;0.30;99.90;;;;;;5067051;28;20408;-70
2023/03/28 04:29:08;;;;;;;;;;;0.30;99.90;;;;;;5005429;28;211166;-70
2023/03/28 04:31:34;;;;;;;;;;;0.20;99.90;;;;;;5075208;28;19921;-71
2023/03/28 04:34:02;;;;;;;;;;;0.20;99.90;;;;;;5001966;28;211457;-70
2023/03/28 04:36:28;;;;;;;;;;;0.20;99.90;;;;;;5070190;28;19924;-71
2023/03/28 04:38:57;;;;;;;;;;;0.20;99.90;;;;;;4998972;28;210897;-70
2023/03/28 04:41:24;;;;;;;;;;;0.20;99.90;;;;;;5060765;28;20273;-70
2023/03/28 04:43:51;;;;;;;;;;;0.10;99.90;;;;;;5004863;28;206070;-71
2023/03/28 04:46:17;;;;;;;;;;;0.10;99.90;;;;;;5068659;28;19959;-71
2023/03/28 04:48:43;;;;;;;;;;;0.10;99.90;;;;;;5043946;28;210373;-71
2023/03/28 04:51:09;;;;;;;;;;;0.10;99.90;;;;;;4997180;28;29570;-70
2023/03/28 04:53:35;;;;;;;;;;;0.10;99.90;;;;;;5059191;28;21297;-69
2023/03/28 04:56:01;;;;;;;;;;;0.10;99.90;;;;;;4983011;28;206889;-70
2023/03/28 04:58:27;;;;;;;;;;;0.00;99.90;;;;;;5043364;28;19925;-71
2023/03/28 05:00:53;;;;;;;;;;;0.00;99.90;;;;;;4981954;28;227388;-70
2023/03/28 05:03:20;;;;;;;;;;;0.00;99.90;;;;;;5058731;28;19928;-70
2023/03/28 05:05:47;;;;;;;;;;;-0.10;99.90;;;;;;4992463;28;207622;-71
2023/03/28 05:08:14;;;;;;;;;;;-0.10;99.90;;;;;;5075318;28;20389;-70
2023/03/28 05:10:40;;;;;;;;;;;-0.10;99.90;;;;;;4986950;28;206577;-70
2023/03/28 05:13:06;;;;;;;;;;;-0.10;99.90;;;;;;5039151;28;19921;-71
2023/03/28 05:15:32;;;;;;;;;;;-0.20;99.90;;;;;;5016059;28;198502;-71
2023/03/28 05:17:58;;;;;;;;;;;-0.10;99.90;;;;;;5047081;28;20307;-70
2023/03/28 05:20:24;;;;;;;;;;;-0.20;99.90;;;;;;4994402;28;208441;-70
2023/03/28 05:22:50;;;;;;;;;;;-0.20;99.90;;;;;;5050977;28;20512;-70
2023/03/28 05:25:16;;;;;;;;;;;-0.30;99.90;;;;;;5014300;28;207813;-70
2023/03/28 05:27:42;;;;;;;;;;;-0.30;99.90;;;;;;5064288;28;20035;-69
2023/03/28 05:30:09;;;;;;;;;;;-0.30;99.90;;;;;;5016722;28;208650;-70
2023/03/28 05:32:36;;;;;;;;;;;-0.40;99.90;;;;;;5063482;28;20408;-69
2023/03/28 05:35:06;;;;;;;;;;;-0.30;99.90;;;;;;5018761;28;209266;-71
2023/03/28 05:37:32;;;;;;;;;;;-0.40;99.90;;;;;;5061172;28;19924;-70
2023/03/28 05:39:58;;;;;;;;;;;-0.40;99.90;;;;;;5015418;28;209374;-69
2023/03/28 05:42:24;;;;;;;;;;;-0.40;99.90;;;;;;5064833;28;19929;-71
2023/03/28 05:44:50;;;;;;;;;;;-0.40;99.90;;;;;;4996910;28;210622;-70
2023/03/28 05:47:17;;;;;;;;;;;-0.40;99.90;;;;;;5044828;28;19921;-70
2023/03/28 05:49:43;;;;;;;;;;;-0.40;99.90;;;;;;4994443;28;165553;-69
2023/03/28 05:52:09;;;;;;;;;;;-0.40;99.90;;;;;;5056420;28;19921;-70
2023/03/28 05:54:35;;;;;;;;;;;-0.30;99.90;;;;;;5006163;28;206285;-71
2023/03/28 05:57:02;;;;;;;;;;;-0.30;99.90;;;;;;5046237;28;19929;-70
2023/03/28 05:59:28;;;;;;;;;;;-0.20;99.90;;;;;;5011510;28;205810;-71
2023/03/28 06:01:54;;;;;;;;;;;0.00;99.90;;;;;;5071874;28;19920;-71
2023/03/28 06:04:21;;;;;;;;;;;0.10;99.90;;;;;;5011651;28;206727;-70
2023/03/28 06:06:48;;;;;;;;;;;0.20;99.90;;;;;;5052246;28;19929;-69
2023/03/28 06:09:14;;;;;;;;;;;0.30;99.90;;;;;;4999747;28;206842;-70
2023/03/28 06:11:41;;;;;;;;;;;0.40;99.90;;;;;;5074078;28;19927;-70
2023/03/28 06:14:07;;;;;;;;;;;0.50;99.90;;;;;;5007601;28;199797;-70
2023/03/28 06:16:34;;;;;;;;;;;0.70;99.90;;;;;;5075375;28;19924;-69
2023/03/28 06:19:00;;;;;;;;;;;0.80;99.90;;;;;;5014228;28;205187;-70
2023/03/28 06:21:25;;;;;;;;;;;0.90;99.90;;;;;;5047274;28;19931;-71
2023/03/28 06:23:51;;;;;;;;;;;1.00;99.90;;;;;;5004026;28;208365;-70
2023/03/28 06:26:17;;;;;;;;;;;1.00;99.90;;;;;;5075403;28;20055;-70
2023/03/28 06:28:44;;;;;;;;;;;1.10;99.90;;;;;;5047039;28;206341;-68
2023/03/28 06:31:10;;;;;;;;;;;1.20;99.90;;;;;;5048581;28;174841;-69
2023/03/28 06:33:39;;;;;;;;;;;1.20;99.90;;;;;;5063925;28;19928;-70
2023/03/28 06:36:06;;;;;;;;;;;1.20;99.90;;;;;;5011006;28;253387;-69
2023/03/28 06:38:33;;;;;;;;;;;1.30;99.90;;;;;;5068673;28;20351;-71
2023/03/28 06:40:58;;;;;;;;;;;1.30;99.90;;;;;;5024193;28;215954;-70
2023/03/28 06:43:24;;;;;;;;;;;1.40;99.90;;;;;;5064868;28;19995;-71
2023/03/28 06:45:51;;;;;;;;;;;1.40;99.90;;;;;;5003036;28;216563;-71
2023/03/28 06:48:17;;;;;;;;;;;1.50;99.90;;;;;;5063074;28;19929;-71
2023/03/28 06:50:49;;;;;;;;;;;1.70;99.90;;;;;;5008346;28;209568;-70
2023/03/28 06:53:15;;;;;;;;;;;2.70;99.90;;;;;;5069481;28;19924;-71
2023/03/28 06:55:41;;;;;;;;;;;3.60;99.90;;;;;;5021364;28;208905;-70
2023/03/28 06:58:07;;;;;;;;;;;4.20;99.90;;;;;;5062692;28;19932;-71
2023/03/28 07:00:33;;;;;;;;;;;4.50;99.90;;;;;;5015637;28;207012;-69
2023/03/28 07:02:59;;;;;;;;;;;4.80;99.90;;;;;;5067326;28;19924;-70
2023/03/28 07:05:25;;;;;;;;;;;4.90;99.90;;;;;;4996237;28;206970;-71
2023/03/28 07:07:51;;;;;;;;;;;4.40;99.90;;;;;;5059080;28;19925;-71
2023/03/28 07:10:17;;;;;;;;;;;4.40;99.90;;;;;;4988605;28;209762;-71
2023/03/28 07:12:43;;;;;;;;;;;5.20;99.90;;;;;;5062904;28;19985;-72
2023/03/28 07:15:09;;;;;;;;;;;5.80;99.90;;;;;;5014818;28;210398;-74
2023/03/28 07:17:35;;;;;;;;;;;6.20;99.90;;;;;;5066112;28;19928;-73
2023/03/28 07:20:01;;;;;;;;;;;6.70;99.90;;;;;;4988822;28;208281;-73
2023/03/28 07:22:27;;;;;;;;;;;6.80;99.90;;;;;;5061236;28;19932;-72
2023/03/28 07:24:53;;;;;;;;;;;6.30;99.90;;;;;;4998877;28;204338;-73
2023/03/28 07:27:19;;;;;;;;;;;5.80;99.90;;;;;;5055452;28;19928;-72
2023/03/28 07:29:44;;;;;;;;;;;5.60;99.90;;;;;;5008750;28;207931;-72
2023/03/28 07:32:10;;;;;;;;;;;5.40;99.90;;;;;;5069940;28;19920;-70
2023/03/28 07:34:36;;;;;;;;;;;5.40;99.90;;;;;;5020419;28;202802;-71
2023/03/28 07:37:02;;;;;;;;;;;5.10;99.90;;;;;;5070589;28;19939;-72
2023/03/28 07:39:28;;;;;;;;;;;5.00;99.90;;;;;;5013930;28;210839;-70
2023/03/28 07:41:54;;;;;;;;;;;5.10;99.90;;;;;;5056114;28;19935;-70
2023/03/28 07:44:20;;;;;;;;;;;5.10;99.90;;;;;;5007914;28;212604;-71
2023/03/28 07:46:46;;;;;;;;;;;5.10;99.90;;;;;;5048420;28;19932;-71
2023/03/28 07:49:14;;;;;;;;;;;5.10;99.90;;;;;;5007540;28;212564;-72
2023/03/28 07:51:40;;;;;;;;;;;5.20;99.90;;;;;;5056165;28;19931;-70
2023/03/28 07:54:08;;;;;;;;;;;5.30;99.90;;;;;;5016214;28;215069;-71
2023/03/28 07:56:34;;;;;;;;;;;5.40;99.90;;;;;;5060863;28;19925;-71
2023/03/28 07:59:00;;;;;;;;;;;5.40;99.90;;;;;;5006292;28;207275;-71
2023/03/28 08:01:26;;;;;;;;;;;5.50;99.90;;;;;;5068400;28;19925;-71
2023/03/28 08:03:52;;;;;;;;;;;5.50;99.90;;;;;;4998922;28;207023;-71
2023/03/28 08:06:18;;;;;;;;;;;5.50;99.90;;;;;;5076463;28;20423;-70
2023/03/28 08:08:44;;;;;;;;;;;5.60;99.90;;;;;;5037977;28;215075;-72
2023/03/28 08:11:11;;;;;;;;;;;5.60;99.90;;;;;;5054645;28;21501;-73
2023/03/28 08:13:37;;;;;;;;;;;5.60;99.90;;;;;;5060132;28;20316;-73
2023/03/28 08:16:03;;;;;;;;;;;5.50;99.90;;;;;;5024157;28;206732;-73
2023/03/28 08:18:28;;;;;;;;;;;5.50;99.90;;;;;;5058883;28;19973;-72
2023/03/28 08:20:59;;;;;;;;;;;5.50;99.90;;;;;;4991671;28;207460;-73
2023/03/28 08:23:26;;;;;;;;;;;5.60;99.90;;;;;;5064436;28;19925;-73
2023/03/28 08:25:58;;;;;;;;;;;5.70;99.90;;;;;;4996075;28;211606;-72
2023/03/28 08:28:23;;;;;;;;;;;6.10;99.90;;;;;;5061727;28;19925;-72
2023/03/28 08:30:49;;;;;;;;;;;6.30;99.90;;;;;;4984960;28;131958;-73
2023/03/28 08:33:16;;;;;;;;;;;6.30;99.90;;;;;;5062778;28;19925;-72
2023/03/28 08:35:42;;;;;;;;;;;6.40;99.90;;;;;;5017764;28;207097;-73
2023/03/28 08:38:08;;;;;;;;;;;6.40;99.90;;;;;;5062446;28;19924;-72
2023/03/28 08:40:34;;;;;;;;;;;6.60;99.90;;;;;;5002091;28;205933;-74
2023/03/28 08:43:03;;;;;;;;;;;6.70;99.90;;;;;;5065125;28;19921;-73
2023/03/28 08:45:32;;;;;;;;;;;6.80;99.90;;;;;;4990457;28;209856;-73
2023/03/28 08:47:58;;;;;;;;;;;6.90;99.90;;;;;;5060094;28;19952;-72
2023/03/28 08:50:26;;;;;;;;;;;7.00;99.90;;;;;;5015858;28;211794;-73
2023/03/28 08:52:52;;;;;;;;;;;7.20;99.90;;;;;;5048877;28;19932;-73
2023/03/28 08:55:26;;;;;;;;;;;7.50;99.90;;;;;;5006922;28;206908;-73
2023/03/28 08:57:54;;;;;;;;;;;7.80;99.90;;;;;;5061579;28;19931;-73
2023/03/28 09:00:19;;;;;;;;;;;8.20;99.90;;;;;;5017961;28;212369;-74
2023/03/28 09:02:45;;;;;;;;;;;8.60;99.90;;;;;;5059170;28;20056;-74
2023/03/28 09:05:15;;;;;;;;;;;9.00;99.90;;;;;;4990027;28;206425;-73
2023/03/28 09:07:54;;;;;;;;;;;9.20;99.50;;;;;;5063005;28;19932;-73
2023/03/28 09:10:38;;;;;;;;;;;9.40;98.90;;;;;;4997965;28;207132;-73
2023/03/28 09:13:04;;;;;;;;;;;9.80;96.80;;;;;;5067294;28;19952;-73
2023/03/28 09:15:29;;;;;;;;;;;9.20;96.50;;;;;;5023776;28;207260;-73
2023/03/28 09:18:11;;;;;;;;;;;8.60;96.90;;;;;;5064095;28;19986;-73
2023/03/28 09:20:53;;;;;;;;;;;8.20;98.40;;;;;;5011159;28;207653;-75
2023/03/28 09:23:45;;;;;;;;;;;8.30;98.80;;;;;;5059670;28;19931;-74
2023/03/28 09:26:11;;;;;;;;;;;9.40;98.10;;;;;;4987334;28;29528;-74
2023/03/28 09:28:39;;;;;;;;;;;10.10;97.80;;;;;;5065061;28;20363;-73
2023/03/28 09:31:08;;;;;;;;;;;10.20;96.30;;;;;;5002950;28;251698;-73
2023/03/28 09:33:35;;;;;;;;;;;10.40;96.20;;;;;;5062770;28;19935;-73
2023/03/28 09:36:02;;;;;;;;;;;10.00;95.00;;;;;;5025319;28;207291;-74
2023/03/28 09:38:33;;;;;;;;;;;9.50;95.80;;;;;;5066923;28;19928;-74
2023/03/28 09:41:03;;;;;;;;;;;9.70;96.50;;;;;;5021636;28;224687;-73
2023/03/28 09:43:33;;;;;;;;;;;10.00;96.00;;;;;;5064916;28;19967;-72
2023/03/28 09:46:01;;;;;;;;;;;10.20;95.20;;;;;;4989045;28;209456;-72
2023/03/28 09:48:28;;;;;;;;;;;10.50;95.60;;;;;;5066001;28;19955;-74
2023/03/28 09:50:55;;;;;;;;;;;10.70;95.30;;;;;;5029153;28;209643;-74
2023/03/28 09:53:23;;;;;;;;;;;10.40;95.60;;;;;;5083330;28;19924;-73
2023/03/28 09:55:50;;;;;;;;;;;10.20;95.80;;;;;;5007479;28;214044;-73
2023/03/28 09:58:17;;;;;;;;;;;10.20;95.10;;;;;;5063216;28;19931;-73
2023/03/28 10:00:53;;;;;;;;;;;10.60;95.00;;;;;;5015540;28;212650;-73
2023/03/28 10:03:28;;;;;;;;;;;10.40;95.20;;;;;;5079557;28;19947;-73
2023/03/28 10:05:55;;;;;;;;;;;10.10;95.40;;;;;;4993364;28;212701;-73
2023/03/28 10:08:24;;;;;;;;;;;9.50;95.60;;;;;;5065748;28;19928;-72
2023/03/28 10:10:54;;;;;;;;;;;9.00;96.30;;;;;;5016079;28;209960;-73
2023/03/28 10:13:20;;;;;;;;;;;8.40;97.10;;;;;;5063850;28;19929;-72
2023/03/28 10:15:46;;;;;;;;;;;8.20;97.80;;;;;;5031254;28;207467;-72
2023/03/28 10:18:16;;;;;;;;;;;8.20;98.00;;;;;;5068147;28;19924;-72
2023/03/28 10:20:42;;;;;;;;;;;8.20;97.70;;;;;;5017954;28;207300;-73
2023/03/28 10:23:12;;;;;;;;;;;8.00;97.70;;;;;;5063012;28;19927;-72
2023/03/28 10:25:40;;;;;;;;;;;7.90;97.60;;;;;;5008090;28;205862;-73
2023/03/28 10:28:06;;;;;;;;;;;7.90;97.00;;;;;;5067247;28;19932;-72
2023/03/28 10:30:35;;;;;;;;;;;8.00;97.50;;;;;;5000671;28;206562;-73
2023/03/28 10:33:16;;;;;;;;;;;8.30;96.50;;;;;;5060233;28;19921;-72
2023/03/28 10:35:46;;;;;;;;;;;9.20;96.60;;;;;;5015749;28;210711;-74
2023/03/28 10:38:17;;;;;;;;;;;10.10;95.80;;;;;;5062546;28;19927;-72
2023/03/28 10:40:50;;;;;;;;;;;10.80;95.20;;;;;;5015557;28;183697;-73
2023/03/28 10:43:16;;;;;;;;;;;10.90;95.00;;;;;;5057710;28;19928;-73
2023/03/28 10:45:43;;;;;;;;;;;10.40;94.20;;;;;;4992492;28;207459;-72
2023/03/28 10:48:14;;;;;;;;;;;9.90;95.20;;;;;;5062373;28;19924;-73
2023/03/28 10:50:48;;;;;;;;;;;9.70;95.20;;;;;;5001951;28;208827;-73
2023/03/28 10:53:32;;;;;;;;;;;9.20;95.10;;;;;;5065055;28;19925;-72
2023/03/28 10:56:17;;;;;;;;;;;9.20;95.20;;;;;;5021064;28;206222;-73
2023/03/28 10:58:46;;;;;;;;;;;9.20;95.10;;;;;;5047103;28;207646;-74
2023/03/28 11:01:17;;;;;;;;;;;9.10;95.30;;;;;;5019713;28;205800;-73
2023/03/28 11:04:01;;;;;;;;;;;9.10;95.20;;;;;;5051097;28;209507;-74
2023/03/28 11:06:38;;;;;;;;;;;9.20;95.10;;;;;;5004327;28;19939;-73
2023/03/28 11:09:09;;;;;;;;;;;9.60;95.20;;;;;;5007512;28;212167;-72
2023/03/28 11:11:43;;;;;;;;;;;9.80;94.50;;;;;;5069922;28;19939;-73
2023/03/28 11:14:20;;;;;;;;;;;9.80;94.90;;;;;;5010163;28;209499;-73
2023/03/28 11:17:05;;;;;;;;;;;10.20;94.70;;;;;;5064675;28;19925;-74
2023/03/28 11:19:43;;;;;;;;;;;10.10;95.00;;;;;;5010456;28;208183;-73
2023/03/28 11:22:12;;;;;;;;;;;9.70;94.40;;;;;;5048902;28;19944;-73
2023/03/28 11:24:40;;;;;;;;;;;9.70;95.30;;;;;;5014287;28;208623;-74
2023/03/28 11:27:30;;;;;;;;;;;9.80;95.40;;;;;;5068007;28;20385;-73
2023/03/28 11:30:16;;;;;;;;;;;9.60;95.00;;;;;;5022313;28;207700;-73
2023/03/28 11:32:46;;;;;;;;;;;10.00;95.40;;;;;;5060581;28;19927;-73
2023/03/28 11:35:30;;;;;;;;;;;10.10;95.20;;;;;;4996176;28;203304;-73
2023/03/28 11:38:03;;;;;;;;;;;9.80;95.10;;;;;;5066047;28;20351;-74
2023/03/28 11:40:29;;;;;;;;;;;10.10;94.80;;;;;;5001569;28;217567;-73
2023/03/28 11:42:56;;;;;;;;;;;10.00;94.90;;;;;;5059707;28;19924;-73
2023/03/28 11:45:23;;;;;;;;;;;10.10;95.10;;;;;;5002055;28;208484;-74
2023/03/28 11:48:02;;;;;;;;;;;10.10;95.20;;;;;;5059583;28;20276;-74
2023/03/28 11:50:42;;;;;;;;;;;10.20;94.90;;;;;;5022615;28;207626;-74
2023/03/28 11:53:17;;;;;;;;;;;10.10;95.00;;;;;;5059683;28;19931;-73
2023/03/28 11:55:47;;;;;;;;;;;9.70;94.80;;;;;;5002809;28;207579;-74
2023/03/28 11:58:16;;;;;;;;;;;10.10;95.50;;;;;;5063814;28;19925;-74
2023/03/28 12:00:44;;;;;;;;;;;10.60;95.20;;;;;;5016099;28;207755;-74
2023/03/28 12:03:27;;;;;;;;;;;11.20;94.90;;;;;;5064756;28;19924;-74
2023/03/28 12:05:58;;;;;;;;;;;11.50;94.10;;;;;;4987705;28;210524;-74
2023/03/28 12:08:32;;;;;;;;;;;11.80;93.50;;;;;;5065615;28;20581;-74
2023/03/28 12:11:04;;;;;;;;;;;11.20;93.50;;;;;;5006228;28;210638;-74
2023/03/28 12:13:37;;;;;;;;;;;11.10;93.70;;;;;;5062139;28;19931;-74
2023/03/28 12:16:19;;;;;;;;;;;11.20;92.90;;;;;;5024450;28;206070;-73
2023/03/28 12:18:56;;;;;;;;;;;11.20;92.20;;;;;;5028704;28;207938;-70
2023/03/28 12:21:32;;;;;;;;;;;11.00;92.20;;;;;;5047170;28;20409;-75
2023/03/28 12:23:58;;;;;;;;;;;10.70;91.60;;;;;;5022958;28;208801;-76
2023/03/28 12:26:30;;;;;;;;;;;10.80;92.50;;;;;;5058899;28;19924;-74
2023/03/28 12:28:59;;;;;;;;;;;11.30;93.30;;;;;;4998194;28;210809;-73
2023/03/28 12:31:40;;;;;;;;;;;11.70;93.20;;;;;;5051811;28;19920;-73
2023/03/28 12:34:12;;;;;;;;;;;12.00;92.80;;;;;;5001905;28;216647;-74
2023/03/28 12:36:43;;;;;;;;;;;12.00;92.20;;;;;;5057488;28;19929;-74
2023/03/28 12:39:33;;;;;;;;;;;11.70;92.00;;;;;;5015597;28;208818;-74
2023/03/28 12:42:08;;;;;;;;;;;11.60;92.40;;;;;;5059367;28;19931;-74
2023/03/28 12:44:40;;;;;;;;;;;11.30;93.10;;;;;;5013860;28;206168;-72
2023/03/28 12:47:09;;;;;;;;;;;11.60;93.60;;;;;;5070199;28;19999;-73
2023/03/28 12:49:39;;;;;;;;;;;11.70;92.50;;;;;;5011547;28;207873;-73
2023/03/28 12:52:06;;;;;;;;;;;11.50;92.40;;;;;;5054438;28;19999;-73
2023/03/28 12:54:33;;;;;;;;;;;11.20;92.60;;;;;;5005619;28;204753;-73
2023/03/28 12:57:09;;;;;;;;;;;10.80;93.10;;;;;;5067329;28;19932;-72
2023/03/28 12:59:35;;;;;;;;;;;10.60;94.00;;;;;;5004248;28;206969;-72
2023/03/28 13:02:16;;;;;;;;;;;11.00;93.50;;;;;;5064064;28;20495;-72
2023/03/28 13:04:54;;;;;;;;;;;11.30;93.40;;;;;;4987092;28;212814;-71
2023/03/28 13:07:34;;;;;;;;;;;11.40;93.70;;;;;;5057401;28;19932;-71
2023/03/28 13:10:05;;;;;;;;;;;11.30;93.40;;;;;;5020274;28;207303;-71
2023/03/28 13:12:33;;;;;;;;;;;10.60;93.40;;;;;;5073482;28;19920;-71
2023/03/28 13:15:20;;;;;;;;;;;10.80;93.40;;;;;;5013517;28;216526;-71
2023/03/28 13:17:46;;;;;;;;;;;11.10;93.70;;;;;;5059618;28;19924;-71
2023/03/28 13:20:15;;;;;;;;;;;11.20;92.80;;;;;;5017380;28;223869;-71
2023/03/28 13:22:49;;;;;;;;;;;11.10;93.10;;;;;;5072233;28;19928;-71
2023/03/28 13:25:15;;;;;;;;;;;10.90;93.40;;;;;;5005874;28;206525;-70
2023/03/28 13:27:41;;;;;;;;;;;10.90;93.50;;;;;;5067903;28;19931;-72
2023/03/28 13:30:15;;;;;;;;;;;10.80;93.00;;;;;;5020426;28;205981;-71
2023/03/28 13:32:43;;;;;;;;;;;10.60;92.60;;;;;;5071498;28;19927;-71
2023/03/28 13:35:29;;;;;;;;;;;10.40;93.30;;;;;;5031045;28;206621;-73
2023/03/28 13:38:11;;;;;;;;;;;10.30;93.30;;;;;;5067886;28;19932;-71
2023/03/28 13:40:44;;;;;;;;;;;10.40;93.20;;;;;;5008485;28;206433;-72
2023/03/28 13:43:28;;;;;;;;;;;10.60;93.30;;;;;;5066444;28;20361;-73
2023/03/28 13:45:56;;;;;;;;;;;10.50;94.00;;;;;;5004693;28;211504;-71
2023/03/28 13:48:28;;;;;;;;;;;10.80;93.60;;;;;;5067187;28;19924;-73
2023/03/28 13:50:56;;;;;;;;;;;10.90;93.10;;;;;;5007226;28;208373;-72
2023/03/28 13:53:22;;;;;;;;;;;10.90;92.60;;;;;;5063166;28;19946;-71
2023/03/28 13:56:04;;;;;;;;;;;11.00;92.60;;;;;;5005111;28;233077;-72
2023/03/28 13:58:33;;;;;;;;;;;11.30;93.10;;;;;;5064463;28;20282;-72
2023/03/28 14:01:06;;;;;;;;;;;11.40;92.30;;;;;;5023883;28;220278;-72
2023/03/28 14:03:33;;;;;;;;;;;10.70;92.50;;;;;;5063995;28;20397;-71
2023/03/28 14:06:10;;;;;;;;;;;10.50;93.00;;;;;;4992916;28;216008;-71
2023/03/28 14:08:35;;;;;;;;;;;10.40;92.60;;;;;;5064329;28;20038;-72
2023/03/28 14:11:01;;;;;;;;;;;10.40;93.30;;;;;;5025343;28;208863;-71
2023/03/28 14:13:30;;;;;;;;;;;10.30;93.30;;;;;;5065284;28;19939;-71
2023/03/28 14:15:56;;;;;;;;;;;10.20;93.60;;;;;;5000305;28;239659;-71
2023/03/28 14:18:33;;;;;;;;;;;10.30;93.80;;;;;;5061484;28;19929;-72
2023/03/28 14:21:00;;;;;;;;;;;10.10;93.20;;;;;;5008318;28;204996;-72
2023/03/28 14:23:30;;;;;;;;;;;10.20;93.20;;;;;;5064065;28;19939;-72
2023/03/28 14:25:59;;;;;;;;;;;10.30;93.50;;;;;;4992265;28;206954;-72
2023/03/28 14:28:26;;;;;;;;;;;10.30;93.20;;;;;;5066649;28;19958;-70
2023/03/28 14:30:52;;;;;;;;;;;10.30;93.30;;;;;;5014886;28;208797;-72
2023/03/28 14:33:19;;;;;;;;;;;10.00;93.20;;;;;;5066104;28;19924;-71